sensor_id;sensor_type;location;lat;lon;timestamp;pressure;altitude;pressure_sealevel;temperature;humidity
65718;BME280;52445;52.466;-1.016;2022-11-04T00:02:07;98708.84;;;5.32;74.55
65718;BME280;52445;52.466;-1.016;2022-11-04T00:04:35;98701.16;;;5.30;75.31
65718;BME280;52445;52.466;-1.016;2022-11-04T00:07:01;98703.72;;;5.30;74.95
65718;BME280;52445;52.466;-1.016;2022-11-04T00:09:48;98713.16;;;5.31;75.17
65718;BME280;52445;52.466;-1.016;2022-11-04T00:12:14;98708.84;;;5.32;74.81
65718;BME280;52445;52.466;-1.016;2022-11-04T00:14:57;98711.41;;;5.33;74.69
65718;BME280;52445;52.466;-1.016;2022-11-04T00:17:43;98721.69;;;5.35;75.95
65718;BME280;52445;52.466;-1.016;2022-11-04T00:20:10;98725.13;;;5.35;75.00
65718;BME280;52445;52.466;-1.016;2022-11-04T00:22:56;98733.66;;;5.34;75.93
65718;BME280;52445;52.466;-1.016;2022-11-04T00:25:43;98741.41;;;5.33;74.87
65718;BME280;52445;52.466;-1.016;2022-11-04T00:28:29;98734.53;;;5.32;75.65
65718;BME280;52445;52.466;-1.016;2022-11-04T00:31:12;98749.09;;;5.33;75.98
65718;BME280;52445;52.466;-1.016;2022-11-04T00:33:58;98754.19;;;5.34;75.01
65718;BME280;52445;52.466;-1.016;2022-11-04T00:36:25;98758.50;;;5.37;76.08
65718;BME280;52445;52.466;-1.016;2022-11-04T00:38:52;98755.91;;;5.38;75.38
65718;BME280;52445;52.466;-1.016;2022-11-04T00:41:19;98754.19;;;5.40;75.10
65718;BME280;52445;52.466;-1.016;2022-11-04T00:43:58;98767.03;;;5.42;75.43
65718;BME280;52445;52.466;-1.016;2022-11-04T00:46:27;98762.75;;;5.43;75.43
65718;BME280;52445;52.466;-1.016;2022-11-04T00:48:54;98761.91;;;5.42;75.42
65718;BME280;52445;52.466;-1.016;2022-11-04T00:51:21;98773.03;;;5.43;76.50
65718;BME280;52445;52.466;-1.016;2022-11-04T00:53:49;98767.03;;;5.42;75.40
65718;BME280;52445;52.466;-1.016;2022-11-04T00:56:15;98768.75;;;5.45;76.57
65718;BME280;52445;52.466;-1.016;2022-11-04T00:58:42;98773.00;;;5.46;75.21
65718;BME280;52445;52.466;-1.016;2022-11-04T01:01:10;98790.16;;;5.47;75.87
65718;BME280;52445;52.466;-1.016;2022-11-04T01:03:38;98790.97;;;5.47;76.53
65718;BME280;52445;52.466;-1.016;2022-11-04T01:06:05;98801.25;;;5.49;75.88
65718;BME280;52445;52.466;-1.016;2022-11-04T01:08:31;98803.81;;;5.49;76.47
65718;BME280;52445;52.466;-1.016;2022-11-04T01:11:03;98808.97;;;5.52;77.05
65718;BME280;52445;52.466;-1.016;2022-11-04T01:13:31;98808.09;;;5.53;76.73
65718;BME280;52445;52.466;-1.016;2022-11-04T01:15:59;98814.09;;;5.55;75.78
65718;BME280;52445;52.466;-1.016;2022-11-04T01:18:26;98810.66;;;5.56;75.97
65718;BME280;52445;52.466;-1.016;2022-11-04T01:20:53;98815.78;;;5.56;76.60
65718;BME280;52445;52.466;-1.016;2022-11-04T01:23:20;98822.63;;;5.57;76.54
65718;BME280;52445;52.466;-1.016;2022-11-04T01:25:46;98832.91;;;5.60;76.85
65718;BME280;52445;52.466;-1.016;2022-11-04T01:28:13;98836.34;;;5.59;77.26
65718;BME280;52445;52.466;-1.016;2022-11-04T01:30:39;98838.91;;;5.59;76.40
65718;BME280;52445;52.466;-1.016;2022-11-04T01:33:06;98844.06;;;5.61;77.76
65718;BME280;52445;52.466;-1.016;2022-11-04T01:35:32;98851.75;;;5.62;77.71
65718;BME280;52445;52.466;-1.016;2022-11-04T01:37:59;98860.31;;;5.61;76.49
65718;BME280;52445;52.466;-1.016;2022-11-04T01:40:26;98860.31;;;5.63;77.19
65718;BME280;52445;52.466;-1.016;2022-11-04T01:42:52;98866.31;;;5.63;76.79
65718;BME280;52445;52.466;-1.016;2022-11-04T01:45:21;98879.16;;;5.63;77.94
65718;BME280;52445;52.466;-1.016;2022-11-04T01:47:56;98881.72;;;5.63;77.83
65718;BME280;52445;52.466;-1.016;2022-11-04T01:50:27;98885.16;;;5.62;77.25
65718;BME280;52445;52.466;-1.016;2022-11-04T01:55:34;98905.69;;;5.58;77.13
65718;BME280;52445;52.466;-1.016;2022-11-04T01:58:05;98908.25;;;5.53;78.39
65718;BME280;52445;52.466;-1.016;2022-11-04T02:00:37;98911.69;;;5.52;77.53
65718;BME280;52445;52.466;-1.016;2022-11-04T02:03:16;98913.44;;;5.48;77.69
65718;BME280;52445;52.466;-1.016;2022-11-04T02:05:45;98924.53;;;5.49;77.89
65718;BME280;52445;52.466;-1.016;2022-11-04T02:08:13;98918.56;;;5.47;77.63
65718;BME280;52445;52.466;-1.016;2022-11-04T02:10:47;98923.69;;;5.47;77.48
65718;BME280;52445;52.466;-1.016;2022-11-04T02:13:14;98927.09;;;5.49;77.89
65718;BME280;52445;52.466;-1.016;2022-11-04T02:15:50;98929.69;;;5.49;78.53
65718;BME280;52445;52.466;-1.016;2022-11-04T02:18:35;98945.09;;;5.49;78.03
65718;BME280;52445;52.466;-1.016;2022-11-04T02:34:54;98980.19;;;5.53;78.33
65718;BME280;52445;52.466;-1.016;2022-11-04T02:40:48;98988.75;;;5.53;79.89
65718;BME280;52445;52.466;-1.016;2022-11-04T02:43:26;98993.03;;;5.59;78.53
65718;BME280;52445;52.466;-1.016;2022-11-04T02:46:03;99003.31;;;5.61;78.40
65718;BME280;52445;52.466;-1.016;2022-11-04T02:51:30;99010.16;;;5.60;79.13
65718;BME280;52445;52.466;-1.016;2022-11-04T02:54:07;99016.16;;;5.62;79.40
65718;BME280;52445;52.466;-1.016;2022-11-04T02:56:41;99011.88;;;5.61;79.42
65718;BME280;52445;52.466;-1.016;2022-11-04T02:59:17;99016.16;;;5.62;79.30
65718;BME280;52445;52.466;-1.016;2022-11-04T03:01:46;99019.56;;;5.61;78.55
65718;BME280;52445;52.466;-1.016;2022-11-04T03:04:23;99031.59;;;5.62;78.92
65718;BME280;52445;52.466;-1.016;2022-11-04T03:06:53;99031.59;;;5.62;78.47
65718;BME280;52445;52.466;-1.016;2022-11-04T03:09:22;99029.84;;;5.61;78.75
65718;BME280;52445;52.466;-1.016;2022-11-04T03:11:55;99036.72;;;5.59;78.90
65718;BME280;52445;52.466;-1.016;2022-11-04T03:14:28;99036.72;;;5.59;78.30
65718;BME280;52445;52.466;-1.016;2022-11-04T03:16:59;99035.00;;;5.58;78.33
65718;BME280;52445;52.466;-1.016;2022-11-04T03:19:52;99042.69;;;5.53;77.94
65718;BME280;52445;52.466;-1.016;2022-11-04T03:22:22;99041.84;;;5.55;78.00
65718;BME280;52445;52.466;-1.016;2022-11-04T03:24:51;99036.69;;;5.47;78.31
65718;BME280;52445;52.466;-1.016;2022-11-04T03:30:00;99043.56;;;5.51;78.75
65718;BME280;52445;52.466;-1.016;2022-11-04T03:35:22;99044.41;;;5.45;78.12
65718;BME280;52445;52.466;-1.016;2022-11-04T03:37:50;99048.66;;;5.45;77.85
65718;BME280;52445;52.466;-1.016;2022-11-04T03:40:17;99058.94;;;5.42;78.44
65718;BME280;52445;52.466;-1.016;2022-11-04T03:43:21;99059.78;;;5.36;78.34
65718;BME280;52445;52.466;-1.016;2022-11-04T03:45:51;99065.75;;;5.33;77.88
65718;BME280;52445;52.466;-1.016;2022-11-04T03:48:17;99068.31;;;5.30;77.99
65718;BME280;52445;52.466;-1.016;2022-11-04T03:50:46;99073.47;;;5.27;78.42
65718;BME280;52445;52.466;-1.016;2022-11-04T03:53:17;99075.16;;;5.26;77.97
65718;BME280;52445;52.466;-1.016;2022-11-04T04:01:22;99107.66;;;5.23;78.52
65718;BME280;52445;52.466;-1.016;2022-11-04T04:04:00;99097.38;;;5.23;79.25
65718;BME280;52445;52.466;-1.016;2022-11-04T04:06:34;99098.25;;;5.22;78.75
65718;BME280;52445;52.466;-1.016;2022-11-04T04:09:21;99105.09;;;5.18;79.39
65718;BME280;52445;52.466;-1.016;2022-11-04T04:14:45;99114.63;;;5.57;77.67
65718;BME280;52445;52.466;-1.016;2022-11-04T04:17:36;99118.78;;;5.20;79.26
65718;BME280;52445;52.466;-1.016;2022-11-04T04:20:11;99132.44;;;5.14;79.45
65718;BME280;52445;52.466;-1.016;2022-11-04T04:22:44;99123.88;;;5.09;80.47
65718;BME280;52445;52.466;-1.016;2022-11-04T04:25:14;99138.38;;;5.07;80.64
65718;BME280;52445;52.466;-1.016;2022-11-04T04:28:03;99140.97;;;5.06;80.79
65718;BME280;52445;52.466;-1.016;2022-11-04T04:30:30;99147.78;;;5.02;81.12
65718;BME280;52445;52.466;-1.016;2022-11-04T04:33:00;99151.22;;;5.04;80.67
65718;BME280;52445;52.466;-1.016;2022-11-04T04:35:34;99152.06;;;5.03;80.80
65718;BME280;52445;52.466;-1.016;2022-11-04T04:40:58;99171.75;;;5.04;80.72
65718;BME280;52445;52.466;-1.016;2022-11-04T04:43:47;99174.34;;;5.04;80.19
65718;BME280;52445;52.466;-1.016;2022-11-04T04:46:34;99178.59;;;5.02;80.63
65718;BME280;52445;52.466;-1.016;2022-11-04T04:49:06;99188.84;;;5.02;80.35
65718;BME280;52445;52.466;-1.016;2022-11-04T04:51:36;99199.13;;;5.02;80.10
65718;BME280;52445;52.466;-1.016;2022-11-04T04:54:04;99205.09;;;5.01;80.75
65718;BME280;52445;52.466;-1.016;2022-11-04T04:56:30;99214.50;;;4.99;80.23
65718;BME280;52445;52.466;-1.016;2022-11-04T04:58:57;99216.22;;;5.03;80.80
65718;BME280;52445;52.466;-1.016;2022-11-04T05:01:23;99217.94;;;5.01;81.11
65718;BME280;52445;52.466;-1.016;2022-11-04T05:03:50;99219.66;;;5.02;80.49
65718;BME280;52445;52.466;-1.016;2022-11-04T05:06:17;99223.09;;;5.04;80.78
65718;BME280;52445;52.466;-1.016;2022-11-04T05:08:43;99228.22;;;5.04;80.60
65718;BME280;52445;52.466;-1.016;2022-11-04T05:11:10;99234.19;;;5.01;81.25
65718;BME280;52445;52.466;-1.016;2022-11-04T05:13:36;99236.75;;;5.03;81.39
65718;BME280;52445;52.466;-1.016;2022-11-04T05:16:07;99238.50;;;5.04;80.86
65718;BME280;52445;52.466;-1.016;2022-11-04T05:18:34;99238.44;;;4.98;81.45
65718;BME280;52445;52.466;-1.016;2022-11-04T05:21:04;99248.78;;;5.04;80.60
65718;BME280;52445;52.466;-1.016;2022-11-04T05:23:31;99264.16;;;5.04;80.59
65718;BME280;52445;52.466;-1.016;2022-11-04T05:25:58;99270.13;;;5.05;80.97
65718;BME280;52445;52.466;-1.016;2022-11-04T05:28:24;99276.16;;;5.05;81.35
65718;BME280;52445;52.466;-1.016;2022-11-04T05:30:51;99291.56;;;5.07;80.85
65718;BME280;52445;52.466;-1.016;2022-11-04T05:33:18;99296.69;;;5.05;81.00
65718;BME280;52445;52.466;-1.016;2022-11-04T05:35:44;99302.66;;;5.07;81.11
65718;BME280;52445;52.466;-1.016;2022-11-04T05:38:11;99311.22;;;5.06;80.39
65718;BME280;52445;52.466;-1.016;2022-11-04T05:40:38;99312.09;;;5.05;80.56
65718;BME280;52445;52.466;-1.016;2022-11-04T05:43:04;99321.47;;;5.03;80.88
65718;BME280;52445;52.466;-1.016;2022-11-04T05:45:31;99318.91;;;5.00;80.49
65718;BME280;52445;52.466;-1.016;2022-11-04T05:48:00;99317.16;;;4.99;80.68
65718;BME280;52445;52.466;-1.016;2022-11-04T05:50:28;99324.84;;;4.96;80.05
65718;BME280;52445;52.466;-1.016;2022-11-04T05:52:56;99332.56;;;4.96;79.96
65718;BME280;52445;52.466;-1.016;2022-11-04T05:55:24;99341.03;;;4.92;80.92
65718;BME280;52445;52.466;-1.016;2022-11-04T05:57:51;99337.66;;;4.93;80.60
65718;BME280;52445;52.466;-1.016;2022-11-04T06:00:18;99353.06;;;4.93;80.40
65718;BME280;52445;52.466;-1.016;2022-11-04T06:02:44;99356.44;;;4.92;80.33
65718;BME280;52445;52.466;-1.016;2022-11-04T06:05:11;99360.75;;;4.93;80.82
65718;BME280;52445;52.466;-1.016;2022-11-04T06:07:38;99375.28;;;4.94;80.16
65718;BME280;52445;52.466;-1.016;2022-11-04T06:10:05;99385.53;;;4.92;80.15
65718;BME280;52445;52.466;-1.016;2022-11-04T06:12:32;99385.53;;;4.91;80.12
65718;BME280;52445;52.466;-1.016;2022-11-04T06:14:58;99400.06;;;4.90;79.85
65718;BME280;52445;52.466;-1.016;2022-11-04T06:17:25;99402.63;;;4.88;79.99
65718;BME280;52445;52.466;-1.016;2022-11-04T06:19:51;99414.59;;;4.89;79.89
65718;BME280;52445;52.466;-1.016;2022-11-04T06:22:18;99414.59;;;4.88;80.57
65718;BME280;52445;52.466;-1.016;2022-11-04T06:24:45;99420.59;;;4.88;80.49
65718;BME280;52445;52.466;-1.016;2022-11-04T06:27:12;99421.44;;;4.91;80.86
65718;BME280;52445;52.466;-1.016;2022-11-04T06:29:38;99418.88;;;4.91;80.70
65718;BME280;52445;52.466;-1.016;2022-11-04T06:32:08;99413.75;;;4.91;80.38
65718;BME280;52445;52.466;-1.016;2022-11-04T06:34:34;99424.00;;;4.91;79.98
65718;BME280;52445;52.466;-1.016;2022-11-04T06:37:01;99424.88;;;4.89;80.13
65718;BME280;52445;52.466;-1.016;2022-11-04T06:39:28;99418.88;;;4.89;79.81
65718;BME280;52445;52.466;-1.016;2022-11-04T06:41:55;99428.28;;;4.88;79.94
65718;BME280;52445;52.466;-1.016;2022-11-04T06:44:26;99428.28;;;4.88;80.21
65718;BME280;52445;52.466;-1.016;2022-11-04T06:46:53;99432.53;;;4.86;80.50
65718;BME280;52445;52.466;-1.016;2022-11-04T06:49:21;99435.94;;;4.85;80.30
65718;BME280;52445;52.466;-1.016;2022-11-04T06:51:49;99438.50;;;4.84;79.75
65718;BME280;52445;52.466;-1.016;2022-11-04T06:54:16;99440.16;;;4.80;79.54
65718;BME280;52445;52.466;-1.016;2022-11-04T06:56:43;99448.69;;;4.79;79.42
65718;BME280;52445;52.466;-1.016;2022-11-04T06:59:19;99459.78;;;4.75;80.30
65718;BME280;52445;52.466;-1.016;2022-11-04T07:01:46;99465.75;;;4.74;79.92
65718;BME280;52445;52.466;-1.016;2022-11-04T07:04:14;99470.00;;;4.72;79.54
65718;BME280;52445;52.466;-1.016;2022-11-04T07:06:41;99480.25;;;4.69;79.75
65718;BME280;52445;52.466;-1.016;2022-11-04T07:09:12;99481.06;;;4.68;79.50
65718;BME280;52445;52.466;-1.016;2022-11-04T07:11:39;99476.78;;;4.67;80.03
65718;BME280;52445;52.466;-1.016;2022-11-04T07:14:06;99487.91;;;4.66;80.29
65718;BME280;52445;52.466;-1.016;2022-11-04T07:16:34;99496.41;;;4.65;79.71
65718;BME280;52445;52.466;-1.016;2022-11-04T07:19:01;99506.66;;;4.65;80.31
65718;BME280;52445;52.466;-1.016;2022-11-04T07:21:28;99503.25;;;4.62;79.91
65718;BME280;52445;52.466;-1.016;2022-11-04T07:23:55;99515.22;;;4.63;79.49
65718;BME280;52445;52.466;-1.016;2022-11-04T07:26:21;99520.34;;;4.63;79.64
65718;BME280;52445;52.466;-1.016;2022-11-04T07:28:48;99531.50;;;4.66;79.83
65718;BME280;52445;52.466;-1.016;2022-11-04T07:31:15;99535.78;;;4.67;79.80
65718;BME280;52445;52.466;-1.016;2022-11-04T07:33:43;99529.84;;;4.71;79.69
65718;BME280;52445;52.466;-1.016;2022-11-04T07:36:15;99546.16;;;4.76;80.22
65718;BME280;52445;52.466;-1.016;2022-11-04T07:38:42;99535.09;;;4.80;79.38
65718;BME280;52445;52.466;-1.016;2022-11-04T07:41:09;99543.06;;;5.02;80.39
65718;BME280;52445;52.466;-1.016;2022-11-04T07:43:35;99541.72;;;5.35;79.90
65718;BME280;52445;52.466;-1.016;2022-11-04T07:46:06;99550.69;;;5.81;78.94
65718;BME280;52445;52.466;-1.016;2022-11-04T07:48:34;99545.94;;;6.25;77.92
65718;BME280;52445;52.466;-1.016;2022-11-04T07:51:03;99543.56;;;6.58;77.88
65718;BME280;52445;52.466;-1.016;2022-11-04T07:53:30;99555.75;;;6.99;76.33
65718;BME280;52445;52.466;-1.016;2022-11-04T07:55:57;99555.06;;;7.45;75.98
65718;BME280;52445;52.466;-1.016;2022-11-04T07:58:24;99557.69;;;8.03;76.03
65718;BME280;52445;52.466;-1.016;2022-11-04T08:00:58;99572.22;;;8.68;74.26
65718;BME280;52445;52.466;-1.016;2022-11-04T08:03:25;99577.16;;;9.34;73.43
65718;BME280;52445;52.466;-1.016;2022-11-04T08:05:57;99582.00;;;9.90;72.66
65718;BME280;52445;52.466;-1.016;2022-11-04T08:08:25;99585.00;;;10.39;70.74
65718;BME280;52445;52.466;-1.016;2022-11-04T08:10:54;99589.75;;;10.86;69.92
65718;BME280;52445;52.466;-1.016;2022-11-04T08:13:25;99585.03;;;11.19;68.91
65718;BME280;52445;52.466;-1.016;2022-11-04T08:15:52;99593.81;;;11.07;65.97
65718;BME280;52445;52.466;-1.016;2022-11-04T08:18:19;99592.72;;;11.25;66.73
65718;BME280;52445;52.466;-1.016;2022-11-04T08:20:48;99599.78;;;11.14;66.67
65718;BME280;52445;52.466;-1.016;2022-11-04T08:23:16;99608.63;;;10.97;67.67
65718;BME280;52445;52.466;-1.016;2022-11-04T08:25:43;99613.81;;;10.97;68.39
65718;BME280;52445;52.466;-1.016;2022-11-04T08:28:10;99619.56;;;11.23;69.44
65718;BME280;52445;52.466;-1.016;2022-11-04T08:31:05;99624.16;;;11.68;68.37
65718;BME280;52445;52.466;-1.016;2022-11-04T08:33:32;99617.34;;;12.19;68.99
65718;BME280;52445;52.466;-1.016;2022-11-04T08:36:04;99623.25;;;12.79;67.32
65718;BME280;52445;52.466;-1.016;2022-11-04T08:38:31;99629.13;;;13.33;66.94
65718;BME280;52445;52.466;-1.016;2022-11-04T08:41:02;99625.81;;;13.69;65.27
65718;BME280;52445;52.466;-1.016;2022-11-04T08:43:29;99627.41;;;14.13;64.78
65718;BME280;52445;52.466;-1.016;2022-11-04T08:45:56;99623.75;;;14.55;63.27
65718;BME280;52445;52.466;-1.016;2022-11-04T08:48:23;99630.34;;;15.02;62.72
65718;BME280;52445;52.466;-1.016;2022-11-04T08:50:52;99632.31;;;15.55;62.12
65718;BME280;52445;52.466;-1.016;2022-11-04T08:53:20;99639.59;;;16.03;60.77
65718;BME280;52445;52.466;-1.016;2022-11-04T08:55:47;99637.44;;;16.43;59.38
65718;BME280;52445;52.466;-1.016;2022-11-04T08:58:14;99636.81;;;16.87;59.57
65718;BME280;52445;52.466;-1.016;2022-11-04T09:00:42;99642.09;;;17.35;58.19
65718;BME280;52445;52.466;-1.016;2022-11-04T09:03:08;99650.13;;;17.77;57.21
65718;BME280;52445;52.466;-1.016;2022-11-04T09:05:37;99642.66;;;18.12;56.10
65718;BME280;52445;52.466;-1.016;2022-11-04T09:08:12;99645.41;;;18.52;55.45
65718;BME280;52445;52.466;-1.016;2022-11-04T09:10:41;99647.53;;;18.84;54.16
65718;BME280;52445;52.466;-1.016;2022-11-04T09:13:09;99640.94;;;19.15;53.83
65718;BME280;52445;52.466;-1.016;2022-11-04T09:15:37;99644.59;;;19.51;52.50
65718;BME280;52445;52.466;-1.016;2022-11-04T09:18:04;99652.09;;;19.78;52.30
65718;BME280;52445;52.466;-1.016;2022-11-04T09:20:31;99655.13;;;20.07;52.23
65718;BME280;52445;52.466;-1.016;2022-11-04T09:22:58;99660.19;;;20.47;51.59
65718;BME280;52445;52.466;-1.016;2022-11-04T09:25:24;99661.72;;;20.87;50.82
65718;BME280;52445;52.466;-1.016;2022-11-04T09:27:51;99665.41;;;21.18;50.41
65718;BME280;52445;52.466;-1.016;2022-11-04T09:30:18;99674.75;;;21.40;49.45
65718;BME280;52445;52.466;-1.016;2022-11-04T09:32:44;99679.19;;;21.55;47.89
65718;BME280;52445;52.466;-1.016;2022-11-04T09:35:17;99685.19;;;21.75;48.18
65718;BME280;52445;52.466;-1.016;2022-11-04T09:37:44;99685.19;;;21.91;47.57
65718;BME280;52445;52.466;-1.016;2022-11-04T09:40:14;99690.44;;;22.07;47.12
65718;BME280;52445;52.466;-1.016;2022-11-04T09:45:45;99700.47;;;22.17;45.50
65718;BME280;52445;52.466;-1.016;2022-11-04T09:48:24;99702.38;;;22.29;46.37
65718;BME280;52445;52.466;-1.016;2022-11-04T09:50:56;99702.38;;;22.29;44.63
65718;BME280;52445;52.466;-1.016;2022-11-04T09:56:07;99705.19;;;22.26;44.38
65718;BME280;52445;52.466;-1.016;2022-11-04T09:58:37;99711.53;;;22.07;43.28
65718;BME280;52445;52.466;-1.016;2022-11-04T10:01:15;99706.78;;;21.98;43.79
65718;BME280;52445;52.466;-1.016;2022-11-04T10:22:44;99744.03;;;21.92;42.48
65718;BME280;52445;52.466;-1.016;2022-11-04T10:25:21;99750.75;;;21.48;41.70
65718;BME280;52445;52.466;-1.016;2022-11-04T10:27:50;99752.19;;;20.84;42.36
65718;BME280;52445;52.466;-1.016;2022-11-04T10:33:00;99749.63;;;19.32;44.34
65718;BME280;52445;52.466;-1.016;2022-11-04T10:35:48;99758.31;;;18.70;46.42
65718;BME280;52445;52.466;-1.016;2022-11-04T10:38:21;99757.09;;;18.11;47.22
65718;BME280;52445;52.466;-1.016;2022-11-04T10:40:52;99765.38;;;17.53;47.34
65718;BME280;52445;52.466;-1.016;2022-11-04T10:43:36;99769.59;;;16.79;48.17
65718;BME280;52445;52.466;-1.016;2022-11-04T10:52:09;99779.81;;;15.71;51.60
65718;BME280;52445;52.466;-1.016;2022-11-04T10:54:43;99782.22;;;15.47;52.20
65718;BME280;52445;52.466;-1.016;2022-11-04T10:57:11;99786.03;;;15.33;52.76
65718;BME280;52445;52.466;-1.016;2022-11-04T11:02:21;99782.91;;;14.85;53.53
65718;BME280;52445;52.466;-1.016;2022-11-04T11:05:24;99784.50;;;14.53;54.66
65718;BME280;52445;52.466;-1.016;2022-11-04T11:07:54;99781.22;;;14.45;54.57
65718;BME280;52445;52.466;-1.016;2022-11-04T11:10:27;99785.41;;;14.12;55.92
65718;BME280;52445;52.466;-1.016;2022-11-04T11:15:33;99783.94;;;14.00;55.93
65718;BME280;52445;52.466;-1.016;2022-11-04T11:18:17;99782.75;;;13.73;56.68
65718;BME280;52445;52.466;-1.016;2022-11-04T11:20:50;99786.25;;;13.72;57.18
65718;BME280;52445;52.466;-1.016;2022-11-04T11:23:36;99791.09;;;13.42;57.94
65718;BME280;52445;52.466;-1.016;2022-11-04T11:26:08;99792.06;;;13.37;57.25
65718;BME280;52445;52.466;-1.016;2022-11-04T11:28:37;99794.03;;;13.23;57.78
65718;BME280;52445;52.466;-1.016;2022-11-04T11:31:08;99791.69;;;13.09;58.60
65718;BME280;52445;52.466;-1.016;2022-11-04T11:33:46;99800.50;;;12.98;58.66
65718;BME280;52445;52.466;-1.016;2022-11-04T11:36:18;99798.03;;;12.92;59.18
65718;BME280;52445;52.466;-1.016;2022-11-04T11:39:05;99795.56;;;12.83;58.47
65718;BME280;52445;52.466;-1.016;2022-11-04T11:47:34;99813.16;;;12.67;60.17
65718;BME280;52445;52.466;-1.016;2022-11-04T11:52:42;99800.41;;;12.51;60.83
65718;BME280;52445;52.466;-1.016;2022-11-04T11:55:29;99815.13;;;12.49;60.95
65718;BME280;52445;52.466;-1.016;2022-11-04T11:58:22;99812.66;;;12.43;60.64
65718;BME280;52445;52.466;-1.016;2022-11-04T12:01:32;99814.41;;;12.41;60.69
65718;BME280;52445;52.466;-1.016;2022-11-04T12:04:00;99813.50;;;12.42;61.63
65718;BME280;52445;52.466;-1.016;2022-11-04T12:14:51;99807.69;;;12.24;61.83
65718;BME280;52445;52.466;-1.016;2022-11-04T12:31:49;99821.81;;;12.01;61.41
65718;BME280;52445;52.466;-1.016;2022-11-04T12:34:29;99840.88;;;11.97;60.79
65718;BME280;52445;52.466;-1.016;2022-11-04T12:39:51;99840.91;;;11.94;60.44
65718;BME280;52445;52.466;-1.016;2022-11-04T12:51:05;99859.28;;;11.75;60.10
65718;BME280;52445;52.466;-1.016;2022-11-04T12:53:43;99856.69;;;11.75;61.46
65718;BME280;52445;52.466;-1.016;2022-11-04T12:56:16;99864.44;;;11.80;61.33
65718;BME280;52445;52.466;-1.016;2022-11-04T13:01:31;99861.91;;;11.72;60.75
65718;BME280;52445;52.466;-1.016;2022-11-04T13:04:05;99860.19;;;11.71;61.80
65718;BME280;52445;52.466;-1.016;2022-11-04T13:15:00;99860.03;;;11.87;61.74
65718;BME280;52445;52.466;-1.016;2022-11-04T13:17:32;99868.84;;;11.73;62.40
65718;BME280;52445;52.466;-1.016;2022-11-04T13:20:24;99874.19;;;11.57;62.31
65718;BME280;52445;52.466;-1.016;2022-11-04T13:22:57;99867.19;;;11.63;61.94
65718;BME280;52445;52.466;-1.016;2022-11-04T13:25:35;99873.22;;;11.66;62.09
65718;BME280;52445;52.466;-1.016;2022-11-04T13:28:11;99879.28;;;11.64;63.18
65718;BME280;52445;52.466;-1.016;2022-11-04T13:36:18;99881.91;;;11.62;63.15
65718;BME280;52445;52.466;-1.016;2022-11-04T13:38:53;99883.53;;;11.71;62.71
65718;BME280;52445;52.466;-1.016;2022-11-04T13:44:14;99865.34;;;11.74;63.26
65718;BME280;52445;52.466;-1.016;2022-11-04T13:46:47;99853.22;;;11.76;62.61
65718;BME280;52445;52.466;-1.016;2022-11-04T13:49:18;99850.75;;;11.64;63.29
65718;BME280;52445;52.466;-1.016;2022-11-04T13:51:46;99853.34;;;11.64;64.53
65718;BME280;52445;52.466;-1.016;2022-11-04T13:54:27;99854.06;;;11.80;64.31
65718;BME280;52445;52.466;-1.016;2022-11-04T13:57:05;99860.03;;;11.87;64.08
65718;BME280;52445;52.466;-1.016;2022-11-04T13:59:33;99879.03;;;11.92;63.40
65718;BME280;52445;52.466;-1.016;2022-11-04T14:04:56;99872.97;;;11.91;63.55
65718;BME280;52445;52.466;-1.016;2022-11-04T14:16:36;99887.66;;;11.91;62.65
65718;BME280;52445;52.466;-1.016;2022-11-04T14:22:13;99891.09;;;11.96;61.58
65718;BME280;52445;52.466;-1.016;2022-11-04T14:24:41;99902.28;;;12.01;63.20
65718;BME280;52445;52.466;-1.016;2022-11-04T14:27:31;99908.34;;;12.00;62.37
65718;BME280;52445;52.466;-1.016;2022-11-04T14:29:59;99910.06;;;12.01;61.96
65718;BME280;52445;52.466;-1.016;2022-11-04T14:32:31;99915.31;;;11.95;62.68
65718;BME280;52445;52.466;-1.016;2022-11-04T14:35:03;99918.78;;;11.92;62.80
65718;BME280;52445;52.466;-1.016;2022-11-04T14:37:33;99920.56;;;11.89;62.56
65718;BME280;52445;52.466;-1.016;2022-11-04T14:40:06;99913.63;;;11.91;62.50
65718;BME280;52445;52.466;-1.016;2022-11-04T14:45:21;99918.81;;;11.91;63.03
65718;BME280;52445;52.466;-1.016;2022-11-04T14:47:54;99913.63;;;11.89;62.64
65718;BME280;52445;52.466;-1.016;2022-11-04T14:50:25;99924.03;;;11.88;62.71
65718;BME280;52445;52.466;-1.016;2022-11-04T14:52:57;99917.13;;;11.87;63.30
65718;BME280;52445;52.466;-1.016;2022-11-04T14:55:28;99918.88;;;11.85;62.58
65718;BME280;52445;52.466;-1.016;2022-11-04T14:57:58;99915.44;;;11.82;63.33
65718;BME280;52445;52.466;-1.016;2022-11-04T15:03:20;99910.38;;;11.72;62.84
65718;BME280;52445;52.466;-1.016;2022-11-04T15:06:09;99909.53;;;11.66;63.43
65718;BME280;52445;52.466;-1.016;2022-11-04T15:13:56;99922.69;;;11.46;63.73
65718;BME280;52445;52.466;-1.016;2022-11-04T15:16:26;99927.91;;;11.40;63.37
65718;BME280;52445;52.466;-1.016;2022-11-04T15:18:56;99924.50;;;11.35;63.05
65718;BME280;52445;52.466;-1.016;2022-11-04T15:21:24;99926.31;;;11.26;63.72
65718;BME280;52445;52.466;-1.016;2022-11-04T15:23:52;99933.25;;;11.21;64.20
65718;BME280;52445;52.466;-1.016;2022-11-04T15:26:22;99935.91;;;11.13;64.13
65718;BME280;52445;52.466;-1.016;2022-11-04T15:28:57;99937.69;;;11.07;64.50
65718;BME280;52445;52.466;-1.016;2022-11-04T15:31:28;99935.13;;;11.00;63.58
65718;BME280;52445;52.466;-1.016;2022-11-04T15:33:57;99940.31;;;10.94;63.67
65718;BME280;52445;52.466;-1.016;2022-11-04T15:36:27;99941.22;;;10.90;64.91
65718;BME280;52445;52.466;-1.016;2022-11-04T15:39:02;99953.34;;;10.82;64.59
65718;BME280;52445;52.466;-1.016;2022-11-04T15:41:31;99954.25;;;10.77;65.22
65718;BME280;52445;52.466;-1.016;2022-11-04T15:44:22;99959.44;;;10.71;64.56
65718;BME280;52445;52.466;-1.016;2022-11-04T15:46:52;99957.78;;;10.65;65.30
65718;BME280;52445;52.466;-1.016;2022-11-04T15:52:04;99964.69;;;10.59;64.66
65718;BME280;52445;52.466;-1.016;2022-11-04T15:54:34;99962.97;;;10.54;64.59
65718;BME280;52445;52.466;-1.016;2022-11-04T15:57:11;99972.50;;;10.46;65.75
65718;BME280;52445;52.466;-1.016;2022-11-04T15:59:45;99971.63;;;10.41;65.81
65718;BME280;52445;52.466;-1.016;2022-11-04T16:02:24;99976.81;;;10.35;65.92
65718;BME280;52445;52.466;-1.016;2022-11-04T16:07:52;99975.13;;;10.27;65.26
65718;BME280;52445;52.466;-1.016;2022-11-04T16:10:25;99977.75;;;10.21;65.96